Aeroporto :
LOGIN :

Iscrizione | Disclaimer

   EN    FR    IT 

 










Sommario :    VFR   VFR Marginale   IFR   IFR Intensivo   IFR Molto Intensivo
Visibilità : 
Base nubi : 
>= 8 km
>= 3000ft
5 / 8 km
1000 / 3000 ft
1500m / 5 km
500 / 1000 ft
800 / 1500m
200 / 500 ft
< 800m
< 200 ft
Simboli :   Temporali  Nebbia  Neve Forte  Precipitazioni Forti  Vento > 20 kt
SIGMETs :   Varie  Temporali  Ghiacco  Turbolenza  Onda orograficha  Ceneri Vulcaniche






- Altitudine del aeroporto : 341 ft


EPMO - Modlin

ULTIMO METAR :
  • 291430Z 01009KT 330V050 CAVOK 17/01 Q1021

METARs OBSOLETI :
  • 291400Z 02012KT 350V060 CAVOK 17/02 Q1021
  • 291330Z 35010KT 310V020 CAVOK 18/03 Q1021
  • 291300Z 36012KT 330V040 CAVOK 17/03 Q1022
  • 291230Z 01012KT 350V050 CAVOK 17/02 Q1022
  • 291200Z 35012KT 320V030 CAVOK 17/02 Q1022

TAF TAF EPMO
Valido dal 29 a 12 ore il 30 a 12 ore UTC


291130Z 2912/3012 35012KT CAVOK
PROB40
TEMPO 2912/2917 36016G27KT SCT040TCU



MetMap, La meteo Aeronautica in un colpo d'occhio ! - Copyright ORBIFLY Dicembre 2007 - Disclaimer

ORBIFLY MET'MAP TEAM :

Programmazione e sviluppo : Alexandra Zaïnal
Concezione : Baudouin d'Aumeries
Aiuto per la programmazione : Marc-Olivier Méhu
Supporto tecnico e logistico : Manuel Goepfert
Aiuto per la traduzione : Arnaldo La Scala

Contatto : metmap@orbifly.com




FONTI E CREDITI :

   NOAA